createdAt,value
2019-06-27T00:00:17.401Z,4.43
2019-06-27T00:02:44.470Z,4.17
2019-06-27T00:05:11.746Z,4.47
2019-06-27T00:07:38.797Z,4.50
2019-06-27T00:10:07.942Z,5.37
2019-06-27T00:12:35.108Z,4.90
2019-06-27T00:15:02.392Z,4.53
2019-06-27T00:17:30.647Z,4.50
2019-06-27T00:19:57.720Z,4.40
2019-06-27T00:22:24.787Z,4.50
2019-06-27T00:24:51.848Z,4.50
2019-06-27T00:27:18.921Z,5.13
2019-06-27T00:29:45.968Z,4.70
2019-06-27T00:32:13.045Z,4.77
2019-06-27T00:34:40.196Z,4.60
2019-06-27T00:37:07.259Z,5.03
2019-06-27T00:39:34.551Z,5.00
2019-06-27T00:42:01.645Z,5.10
2019-06-27T00:44:28.721Z,5.50
2019-06-27T00:46:55.876Z,5.10
2019-06-27T00:49:22.941Z,5.80
2019-06-27T00:51:50.020Z,5.30
2019-06-27T00:54:17.091Z,4.73
2019-06-27T00:56:44.141Z,5.50
2019-06-27T00:59:11.189Z,5.80
2019-06-27T01:01:38.348Z,5.60
2019-06-27T01:04:05.789Z,4.83
2019-06-27T01:06:32.859Z,5.63
2019-06-27T01:08:59.929Z,6.10
2019-06-27T01:11:27.095Z,5.27
2019-06-27T01:13:54.148Z,5.87
2019-06-27T01:16:21.204Z,5.80
2019-06-27T01:18:48.261Z,5.90
2019-06-27T01:21:15.320Z,5.87
2019-06-27T01:23:45.031Z,5.70
2019-06-27T01:26:11.339Z,5.70
2019-06-27T01:28:38.415Z,5.77
2019-06-27T01:31:05.463Z,6.27
2019-06-27T01:33:32.540Z,6.40
2019-06-27T01:35:59.603Z,6.53
2019-06-27T01:38:26.676Z,6.30
2019-06-27T01:40:53.752Z,5.73
2019-06-27T01:43:20.823Z,6.87
2019-06-27T01:45:51.851Z,6.20
2019-06-27T01:48:19.025Z,6.57
2019-06-27T01:50:46.083Z,6.53
2019-06-27T01:53:13.147Z,6.17
2019-06-27T01:55:40.223Z,6.67
2019-06-27T01:58:07.380Z,6.10
2019-06-27T02:00:34.547Z,6.53
2019-06-27T02:03:01.605Z,6.40
2019-06-27T02:05:28.892Z,6.20
2019-06-27T02:07:56.263Z,6.47
2019-06-27T02:10:23.448Z,6.07
2019-06-27T02:12:50.719Z,7.00
2019-06-27T02:15:21.948Z,7.17
2019-06-27T02:17:47.456Z,7.03
2019-06-27T02:20:15.440Z,5.83
2019-06-27T02:22:42.495Z,6.73
2019-06-27T02:25:11.150Z,6.30
2019-06-27T02:27:38.216Z,7.03
2019-06-27T02:32:38.369Z,7.17
2019-06-27T02:35:05.840Z,6.70
2019-06-27T02:37:32.989Z,7.00
2019-06-27T02:40:00.068Z,7.23
2019-06-27T02:42:27.318Z,6.67
2019-06-27T02:44:54.584Z,6.90
2019-06-27T02:47:21.723Z,7.80
2019-06-27T02:49:50.530Z,7.27
2019-06-27T02:52:17.773Z,7.53
2019-06-27T02:54:44.835Z,7.47
2019-06-27T02:57:11.993Z,7.47
2019-06-27T02:59:39.057Z,7.70
2019-06-27T03:02:06.111Z,7.10
2019-06-27T03:04:33.164Z,7.20
2019-06-27T03:07:00.255Z,8.27
2019-06-27T03:09:27.425Z,8.03
2019-06-27T03:11:59.330Z,7.70
2019-06-27T03:14:23.466Z,8.63
2019-06-27T03:16:50.524Z,8.77
2019-06-27T03:19:17.589Z,7.90
2019-06-27T03:21:44.649Z,7.77
2019-06-27T03:24:11.819Z,8.10
2019-06-27T03:26:38.880Z,8.40
2019-06-27T03:29:05.936Z,8.03
2019-06-27T03:31:33.012Z,8.93
2019-06-27T03:34:00.068Z,9.00
2019-06-27T03:36:27.224Z,8.33
2019-06-27T03:38:54.273Z,8.23
2019-06-27T03:41:21.444Z,7.63
2019-06-27T03:43:48.522Z,7.83
2019-06-27T03:46:16.571Z,8.43
2019-06-27T03:48:43.648Z,8.43
2019-06-27T03:51:10.792Z,7.97
2019-06-27T03:53:37.864Z,6.73
2019-06-27T03:56:05.030Z,7.17
2019-06-27T03:58:32.099Z,7.37
2019-06-27T04:00:59.173Z,7.40
2019-06-27T04:03:26.532Z,6.43
2019-06-27T04:05:54.693Z,6.37
2019-06-27T04:08:21.763Z,7.17
2019-06-27T04:10:48.818Z,6.70
2019-06-27T04:13:16.305Z,5.80
2019-06-27T04:15:45.284Z,7.23
2019-06-27T04:18:14.780Z,5.77
2019-06-27T04:20:43.848Z,6.03
2019-06-27T04:23:10.905Z,6.17
2019-06-27T04:25:37.981Z,5.93
2019-06-27T04:28:05.023Z,6.57
2019-06-27T04:30:32.192Z,6.47
2019-06-27T04:32:59.265Z,5.97
2019-06-27T04:35:26.663Z,6.60
2019-06-27T04:37:53.735Z,6.20
2019-06-27T04:40:20.794Z,6.33
2019-06-27T04:42:47.968Z,6.03
2019-06-27T04:45:15.035Z,6.43
2019-06-27T04:47:42.092Z,4.87
2019-06-27T04:50:09.252Z,4.70
2019-06-27T04:52:36.437Z,5.13
2019-06-27T04:55:04.359Z,5.57
2019-06-27T04:57:31.593Z,6.07
2019-06-27T04:59:58.646Z,5.00
2019-06-27T05:02:30.240Z,6.77
2019-06-27T05:04:54.680Z,7.23
2019-06-27T05:07:21.800Z,7.10
2019-06-27T05:09:48.968Z,6.80
2019-06-27T05:12:16.044Z,6.50
2019-06-27T05:14:43.129Z,6.20
2019-06-27T05:17:10.193Z,6.27
2019-06-27T05:19:37.255Z,6.60
2019-06-27T05:22:04.327Z,6.53
2019-06-27T05:24:31.391Z,5.70
2019-06-27T05:26:58.453Z,5.50
2019-06-27T05:29:25.535Z,5.30
2019-06-27T05:31:52.864Z,5.90
2019-06-27T05:34:19.937Z,6.00
2019-06-27T05:36:47.017Z,5.93
2019-06-27T05:39:15.103Z,5.30
2019-06-27T05:41:42.393Z,5.30
2019-06-27T05:44:09.463Z,5.87
2019-06-27T05:46:36.664Z,5.27
2019-06-27T05:49:03.744Z,5.63
2019-06-27T05:51:30.808Z,5.87
2019-06-27T05:53:58.107Z,5.10
2019-06-27T05:56:25.166Z,5.07
2019-06-27T05:58:52.400Z,5.63
2019-06-27T06:01:19.484Z,6.07
2019-06-27T06:03:46.528Z,6.10
2019-06-27T06:06:13.683Z,6.00
2019-06-27T06:08:40.844Z,5.67
2019-06-27T06:11:07.905Z,6.10
2019-06-27T06:13:34.963Z,6.47
2019-06-27T06:16:03.139Z,6.00
2019-06-27T06:18:30.198Z,6.53
2019-06-27T06:20:57.256Z,6.50
2019-06-27T06:23:24.325Z,7.67
2019-06-27T06:25:51.479Z,6.90
2019-06-27T06:28:18.535Z,7.08
2019-06-27T06:30:45.597Z,7.03
2019-06-27T06:33:13.669Z,5.60
2019-06-27T06:35:40.725Z,6.40
2019-06-27T06:38:08.080Z,6.90
2019-06-27T06:40:35.148Z,6.00
2019-06-27T06:43:02.222Z,6.10
2019-06-27T06:45:29.291Z,6.90
2019-06-27T06:47:56.572Z,5.20
2019-06-27T06:50:23.706Z,6.27
2019-06-27T06:52:50.827Z,6.13
2019-06-27T06:55:17.905Z,5.93
2019-06-27T06:57:45.076Z,6.40
2019-06-27T07:00:12.937Z,6.40
2019-06-27T07:02:39.980Z,5.90
2019-06-27T07:05:07.243Z,5.83
2019-06-27T07:07:34.405Z,6.07
2019-06-27T07:10:01.603Z,5.70
2019-06-27T07:12:28.660Z,5.00
2019-06-27T07:14:55.713Z,5.57
2019-06-27T07:17:23.028Z,4.90
2019-06-27T07:19:50.091Z,5.37
2019-06-27T07:22:17.140Z,5.23
2019-06-27T07:24:44.199Z,5.53
2019-06-27T07:27:11.280Z,4.70
2019-06-27T07:29:39.094Z,5.00
2019-06-27T07:32:06.364Z,5.07
2019-06-27T07:34:33.783Z,5.70
2019-06-27T07:37:00.848Z,5.07
2019-06-27T07:39:27.916Z,5.20
2019-06-27T07:41:54.980Z,5.10
2019-06-27T07:44:22.298Z,5.10
2019-06-27T07:46:49.350Z,6.13
2019-06-27T07:49:16.528Z,5.27
2019-06-27T07:51:43.703Z,5.57
2019-06-27T07:54:10.863Z,5.70
2019-06-27T07:56:37.944Z,5.57
2019-06-27T07:59:05.231Z,6.53
2019-06-27T08:01:35.674Z,5.37
2019-06-27T08:04:01.402Z,6.37
2019-06-27T08:06:28.460Z,6.37
2019-06-27T08:08:55.566Z,5.90
2019-06-27T08:11:22.616Z,4.93
2019-06-27T08:13:49.832Z,5.10
2019-06-27T08:16:16.956Z,5.10
2019-06-27T08:18:44.083Z,5.80
2019-06-27T08:21:12.156Z,5.67
2019-06-27T08:23:41.920Z,5.67
2019-06-27T08:26:08.168Z,5.57
2019-06-27T08:28:35.224Z,4.80
2019-06-27T08:31:02.337Z,5.27
2019-06-27T08:33:29.484Z,5.13
2019-06-27T08:35:56.643Z,5.20
2019-06-27T08:38:23.711Z,4.90
2019-06-27T08:40:50.881Z,5.97
2019-06-27T08:43:17.937Z,5.07
2019-06-27T08:45:44.996Z,5.90
2019-06-27T08:48:12.052Z,5.53
2019-06-27T08:50:39.115Z,5.57
2019-06-27T08:53:06.187Z,5.57
2019-06-27T08:55:33.259Z,5.37
2019-06-27T08:58:00.320Z,5.37
2019-06-27T09:00:27.601Z,5.20
2019-06-27T09:02:54.735Z,5.13
2019-06-27T09:05:21.888Z,6.43
2019-06-27T09:07:48.940Z,5.57
2019-06-27T09:10:16.305Z,5.60
2019-06-27T09:12:43.389Z,5.60
2019-06-27T09:15:10.984Z,5.90
2019-06-27T09:17:38.052Z,6.90
2019-06-27T09:20:05.556Z,5.90
2019-06-27T09:22:32.855Z,5.30
2019-06-27T09:24:59.916Z,6.40
2019-06-27T09:27:26.977Z,6.60
2019-06-27T09:29:54.069Z,6.37
2019-06-27T09:32:26.011Z,5.87
2019-06-27T09:34:50.123Z,6.07
2019-06-27T09:37:17.271Z,6.60
2019-06-27T09:39:44.332Z,6.00
2019-06-27T09:42:12.467Z,5.23
2019-06-27T09:44:42.158Z,6.27
2019-06-27T09:47:08.531Z,6.27
2019-06-27T09:49:35.588Z,5.77
2019-06-27T09:52:02.868Z,6.17
2019-06-27T09:54:29.952Z,6.03
2019-06-27T09:56:58.023Z,6.30
2019-06-27T09:59:25.065Z,6.70
2019-06-27T10:01:52.790Z,6.10
2019-06-27T10:04:19.957Z,5.87
2019-06-27T10:06:47.028Z,6.23
2019-06-27T10:09:14.136Z,7.00
2019-06-27T10:11:41.196Z,5.70
2019-06-27T10:14:08.257Z,5.90
2019-06-27T10:16:35.314Z,6.13
2019-06-27T10:19:02.468Z,5.83
2019-06-27T10:21:29.532Z,5.23
2019-06-27T10:23:56.617Z,5.30
2019-06-27T10:26:24.693Z,5.83
2019-06-27T10:28:51.771Z,6.40
2019-06-27T10:31:18.844Z,5.70
2019-06-27T10:33:45.907Z,5.60
2019-06-27T10:36:12.976Z,5.57
2019-06-27T10:38:40.033Z,4.83
2019-06-27T10:41:07.100Z,5.57
2019-06-27T10:43:34.402Z,5.10
2019-06-27T10:46:01.543Z,4.77
2019-06-27T10:48:28.608Z,5.53
2019-06-27T10:50:55.668Z,5.43
2019-06-27T10:53:22.734Z,5.63
2019-06-27T10:55:50.132Z,5.27
2019-06-27T10:58:17.204Z,5.73
2019-06-27T11:00:44.280Z,4.40
2019-06-27T11:03:16.046Z,4.47
2019-06-27T11:05:40.317Z,4.77
2019-06-27T11:08:08.668Z,5.80
2019-06-27T11:10:35.757Z,6.10
2019-06-27T11:13:02.996Z,5.70
2019-06-27T11:15:30.153Z,6.00
2019-06-27T11:17:57.226Z,5.80
2019-06-27T11:20:24.288Z,5.67
2019-06-27T11:22:51.485Z,5.00
2019-06-27T11:25:18.654Z,5.93
2019-06-27T11:27:45.823Z,5.37
2019-06-27T11:30:15.608Z,6.03
2019-06-27T11:32:43.108Z,5.77
2019-06-27T11:35:10.417Z,5.30
2019-06-27T11:37:37.472Z,4.80
2019-06-27T11:40:04.852Z,5.60
2019-06-27T11:42:31.881Z,4.90
2019-06-27T11:44:58.935Z,5.77
2019-06-27T11:47:25.988Z,5.30
2019-06-27T11:49:53.076Z,5.20
2019-06-27T11:52:20.148Z,4.87
2019-06-27T11:54:47.232Z,4.10
2019-06-27T11:57:14.403Z,4.67
2019-06-27T11:59:41.475Z,4.90
2019-06-27T12:02:08.772Z,5.23
2019-06-27T12:04:35.824Z,5.47
2019-06-27T12:07:03.148Z,6.00
2019-06-27T12:09:30.199Z,4.80
2019-06-27T12:11:57.291Z,4.97
2019-06-27T12:14:24.352Z,5.23
2019-06-27T12:16:51.423Z,4.77
2019-06-27T12:19:18.640Z,4.60
2019-06-27T12:21:45.704Z,5.23
2019-06-27T12:24:12.779Z,4.60
2019-06-27T12:26:39.824Z,4.20
2019-06-27T12:29:07.121Z,5.27
2019-06-27T12:31:34.284Z,5.20
2019-06-27T12:34:06.710Z,4.60
2019-06-27T12:36:30.357Z,5.07
2019-06-27T12:38:57.412Z,5.17
2019-06-27T12:41:24.491Z,4.07
2019-06-27T12:43:51.561Z,4.50
2019-06-27T12:46:18.662Z,5.07
2019-06-27T12:48:45.732Z,3.97
2019-06-27T12:51:12.793Z,5.00
2019-06-27T12:53:39.861Z,4.30
2019-06-27T12:56:06.940Z,4.37
2019-06-27T12:58:34.198Z,3.80
2019-06-27T13:01:01.379Z,3.50
2019-06-27T13:03:28.435Z,4.60
2019-06-27T13:05:55.496Z,4.13
2019-06-27T13:08:22.560Z,3.93
2019-06-27T13:10:49.890Z,3.80
2019-06-27T13:13:16.956Z,3.70
2019-06-27T13:15:44.020Z,3.97
2019-06-27T13:18:11.095Z,3.57
2019-06-27T13:20:38.148Z,3.30
2019-06-27T13:23:05.312Z,4.07
2019-06-27T13:25:34.367Z,4.23
2019-06-27T13:28:01.359Z,3.90
2019-06-27T13:30:28.641Z,3.63
2019-06-27T13:32:55.693Z,3.50
2019-06-27T13:35:22.784Z,3.60
2019-06-27T13:37:50.124Z,3.77
2019-06-27T13:40:17.482Z,3.57
2019-06-27T13:42:44.526Z,3.40
2019-06-27T13:45:11.900Z,3.33
2019-06-27T13:47:38.959Z,3.67
2019-06-27T13:50:07.425Z,3.60
2019-06-27T13:52:34.496Z,3.73
2019-06-27T13:55:01.665Z,3.47
2019-06-27T13:57:28.739Z,3.23
2019-06-27T13:59:55.894Z,2.93
2019-06-27T14:02:22.944Z,3.13
2019-06-27T14:04:56.922Z,3.33
2019-06-27T14:07:19.226Z,3.67
2019-06-27T14:09:53.735Z,3.10
2019-06-27T14:12:15.348Z,3.07
2019-06-27T14:14:55.465Z,2.90
2019-06-27T14:17:11.345Z,3.67
2019-06-27T14:19:38.415Z,3.30
2019-06-27T14:22:05.585Z,3.13
2019-06-27T14:24:32.912Z,3.40
2019-06-27T14:27:00.073Z,3.83
2019-06-27T14:29:27.224Z,3.80
2019-06-27T14:31:54.299Z,4.03
2019-06-27T14:34:21.528Z,3.90
2019-06-27T14:36:48.787Z,3.30
2019-06-27T14:39:15.901Z,3.40
2019-06-27T14:41:42.967Z,3.20
2019-06-27T14:44:10.037Z,3.50
2019-06-27T14:46:37.625Z,3.87
2019-06-27T14:49:05.797Z,3.20
2019-06-27T14:51:32.955Z,3.10
2019-06-27T14:54:00.013Z,3.37
2019-06-27T14:56:27.186Z,3.20
2019-06-27T14:58:54.241Z,3.10
2019-06-27T15:01:21.288Z,3.50
2019-06-27T15:03:48.356Z,3.87
2019-06-27T15:06:15.420Z,3.67
2019-06-27T15:08:42.718Z,4.07
2019-06-27T15:11:09.775Z,3.93
2019-06-27T15:13:37.055Z,4.00
2019-06-27T15:16:11.982Z,3.53
2019-06-27T15:18:33.434Z,3.77
2019-06-27T15:21:00.548Z,3.43
2019-06-27T15:23:29.236Z,3.10
2019-06-27T15:25:56.575Z,3.83
2019-06-27T15:28:24.919Z,4.13
2019-06-27T15:30:52.083Z,3.33
2019-06-27T15:33:19.156Z,4.17
2019-06-27T15:35:52.260Z,3.40
2019-06-27T15:38:15.208Z,3.60
2019-06-27T15:40:42.479Z,3.60
2019-06-27T15:43:09.659Z,4.30
2019-06-27T15:45:36.708Z,3.97
2019-06-27T15:48:03.768Z,3.90
2019-06-27T15:50:30.846Z,3.37
2019-06-27T15:52:58.139Z,3.40
2019-06-27T15:55:25.261Z,3.30
2019-06-27T15:57:52.585Z,3.70
2019-06-27T16:00:20.146Z,3.47
2019-06-27T16:02:47.199Z,4.13
2019-06-27T16:05:14.360Z,3.80
2019-06-27T16:07:41.504Z,4.17
2019-06-27T16:10:09.006Z,3.50
2019-06-27T16:12:36.319Z,3.47
2019-06-27T16:15:04.061Z,4.30
2019-06-27T16:17:31.239Z,3.80
2019-06-27T16:19:58.295Z,4.00
2019-06-27T16:22:26.458Z,4.50
2019-06-27T16:24:53.511Z,4.50
2019-06-27T16:27:20.569Z,4.47
2019-06-27T16:29:47.638Z,3.93
2019-06-27T16:32:14.688Z,4.60
2019-06-27T16:34:41.743Z,5.00
2019-06-27T16:37:08.791Z,5.20
2019-06-27T16:39:38.771Z,5.60
2019-06-27T16:42:04.841Z,5.27
2019-06-27T16:44:31.900Z,5.13
2019-06-27T16:46:58.977Z,5.43
2019-06-27T16:49:26.027Z,4.70
2019-06-27T16:51:53.111Z,4.63
2019-06-27T16:54:20.285Z,5.13
2019-06-27T16:56:47.356Z,4.90
2019-06-27T16:59:14.423Z,4.83
2019-06-27T17:01:41.712Z,5.20
2019-06-27T17:04:08.772Z,4.53
2019-06-27T17:06:42.091Z,4.70
2019-06-27T17:09:05.471Z,4.77
2019-06-27T17:11:32.875Z,4.50
2019-06-27T17:14:00.059Z,4.37
2019-06-27T17:16:27.111Z,4.60
2019-06-27T17:18:54.167Z,4.27
2019-06-27T17:21:21.448Z,4.50
2019-06-27T17:23:48.504Z,4.07
2019-06-27T17:26:15.672Z,4.50
2019-06-27T17:28:42.775Z,4.40
2019-06-27T17:31:09.843Z,4.23
2019-06-27T17:33:36.923Z,4.33
2019-06-27T17:36:04.128Z,4.20
2019-06-27T17:38:31.172Z,3.90
2019-06-27T17:40:58.249Z,3.90
2019-06-27T17:43:25.319Z,3.90
2019-06-27T17:45:52.381Z,4.30
2019-06-27T17:48:20.540Z,3.90
2019-06-27T17:50:47.705Z,4.10
2019-06-27T17:53:15.779Z,3.87
2019-06-27T17:55:42.843Z,4.37
2019-06-27T17:58:09.925Z,3.90
2019-06-27T18:00:42.471Z,3.97
2019-06-27T18:03:09.527Z,4.07
2019-06-27T18:05:36.594Z,3.40
2019-06-27T18:08:03.651Z,4.07
2019-06-27T18:10:31.056Z,4.10
2019-06-27T18:12:58.132Z,4.07
2019-06-27T18:15:25.324Z,4.03
2019-06-27T18:17:52.379Z,4.07
2019-06-27T18:20:19.450Z,4.27
2019-06-27T18:22:46.516Z,3.90
2019-06-27T18:25:13.567Z,4.40
2019-06-27T18:27:40.628Z,5.03
2019-06-27T18:30:15.449Z,4.50
2019-06-27T18:32:42.573Z,4.60
2019-06-27T18:35:09.857Z,4.70
2019-06-27T18:37:37.023Z,4.53
2019-06-27T18:40:04.551Z,5.30
2019-06-27T18:42:31.612Z,4.37
2019-06-27T18:44:58.675Z,4.87
2019-06-27T18:47:26.758Z,4.33
2019-06-27T18:49:53.811Z,4.03
2019-06-27T18:52:20.967Z,5.00
2019-06-27T18:54:48.048Z,4.20
2019-06-27T18:57:15.125Z,4.30
2019-06-27T18:59:42.200Z,4.57
2019-06-27T19:02:09.487Z,4.90
2019-06-27T19:04:36.545Z,4.60
2019-06-27T19:07:03.706Z,4.40
2019-06-27T19:09:30.771Z,4.20
2019-06-27T19:11:57.836Z,4.43
2019-06-27T19:14:24.914Z,4.33
2019-06-27T19:16:51.972Z,4.30
2019-06-27T19:19:22.213Z,4.57
2019-06-27T19:22:09.099Z,4.50
2019-06-27T19:24:41.524Z,4.20
2019-06-27T19:27:08.614Z,4.50
2019-06-27T19:29:35.673Z,4.33
2019-06-27T19:32:02.740Z,4.20
2019-06-27T19:34:29.804Z,4.10
2019-06-27T19:36:57.960Z,4.43
2019-06-27T19:39:25.034Z,4.00
2019-06-27T19:41:52.115Z,4.30
2019-06-27T19:44:19.276Z,5.03
2019-06-27T19:46:46.347Z,4.73
2019-06-27T19:49:13.424Z,4.50
2019-06-27T19:51:40.708Z,4.93
2019-06-27T19:54:07.779Z,5.63
2019-06-27T19:56:34.839Z,5.27
2019-06-27T19:59:01.903Z,5.03
2019-06-27T20:01:29.091Z,5.70
2019-06-27T20:03:56.260Z,5.17
2019-06-27T20:06:23.430Z,5.00
2019-06-27T20:08:50.487Z,5.70
2019-06-27T20:11:17.568Z,5.90
2019-06-27T20:13:44.623Z,5.60
2019-06-27T20:16:11.676Z,5.23
2019-06-27T20:18:38.750Z,5.70
2019-06-27T20:21:05.806Z,5.53
2019-06-27T20:23:32.982Z,5.80
2019-06-27T20:26:01.761Z,6.00
2019-06-27T20:28:29.004Z,6.03
2019-06-27T20:30:56.072Z,6.00
2019-06-27T20:33:23.140Z,5.63
2019-06-27T20:35:50.207Z,5.70
2019-06-27T20:38:17.272Z,5.60
2019-06-27T20:40:44.511Z,6.20
2019-06-27T20:43:11.595Z,5.50
2019-06-27T20:45:38.892Z,5.90
2019-06-27T20:48:06.212Z,5.50
2019-06-27T20:50:33.385Z,5.80
2019-06-27T20:53:00.544Z,5.47
2019-06-27T20:55:27.708Z,6.37
2019-06-27T20:57:54.768Z,5.47
2019-06-27T21:00:21.945Z,5.73
2019-06-27T21:02:48.988Z,5.90
2019-06-27T21:05:16.168Z,5.47
2019-06-27T21:07:43.273Z,5.50
2019-06-27T21:10:10.527Z,6.03
2019-06-27T21:12:37.584Z,5.87
2019-06-27T21:15:05.214Z,5.57
2019-06-27T21:17:32.324Z,6.10
2019-06-27T21:19:59.384Z,5.80
2019-06-27T21:22:26.569Z,5.57
2019-06-27T21:24:53.637Z,6.37
2019-06-27T21:27:20.696Z,5.67
2019-06-27T21:29:47.771Z,5.87
2019-06-27T21:32:30.591Z,5.40
2019-06-27T21:34:43.820Z,6.07
2019-06-27T21:37:10.886Z,5.90
2019-06-27T21:39:37.928Z,6.00
2019-06-27T21:42:05.119Z,6.13
2019-06-27T21:44:32.167Z,6.10
2019-06-27T21:46:59.247Z,5.40
2019-06-27T21:49:26.309Z,5.73
2019-06-27T21:51:53.382Z,5.73
2019-06-27T21:54:20.543Z,5.90
2019-06-27T21:56:47.615Z,6.10
2019-06-27T21:59:14.663Z,5.73
2019-06-27T22:01:41.831Z,5.83
2019-06-27T22:04:09.892Z,5.67
2019-06-27T22:06:37.048Z,5.63
2019-06-27T22:09:06.316Z,5.50
2019-06-27T22:11:33.485Z,5.67
2019-06-27T22:14:00.536Z,5.80
2019-06-27T22:16:27.940Z,5.53
2019-06-27T22:18:55.096Z,6.40
2019-06-27T22:21:22.151Z,6.73
2019-06-27T22:23:49.238Z,6.17
2019-06-27T22:26:16.291Z,6.13
2019-06-27T22:28:43.456Z,6.37
2019-06-27T22:31:10.616Z,6.40
2019-06-27T22:33:37.688Z,6.80
2019-06-27T22:36:04.961Z,7.00
2019-06-27T22:38:50.229Z,6.70
2019-06-27T22:41:35.705Z,6.43
2019-06-27T22:44:20.764Z,6.47
2019-06-27T22:47:05.984Z,6.53
2019-06-27T22:49:32.808Z,6.73
2019-06-27T22:52:13.629Z,7.07
2019-06-27T22:54:41.625Z,6.67
2019-06-27T22:57:09.798Z,6.93
2019-06-27T22:59:36.881Z,6.43
2019-06-27T23:02:04.048Z,6.20
2019-06-27T23:04:31.233Z,6.03
2019-06-27T23:06:58.295Z,5.77
2019-06-27T23:09:25.343Z,6.40
2019-06-27T23:11:52.404Z,6.43
2019-06-27T23:14:19.472Z,6.13
2019-06-27T23:16:46.649Z,6.60
2019-06-27T23:19:13.815Z,6.37
2019-06-27T23:21:40.872Z,6.80
2019-06-27T23:24:07.941Z,5.77
2019-06-27T23:26:35.020Z,6.37
2019-06-27T23:29:02.096Z,6.57
2019-06-27T23:31:29.158Z,6.53
2019-06-27T23:33:56.321Z,6.70
2019-06-27T23:36:23.388Z,6.43
2019-06-27T23:38:50.453Z,6.80
2019-06-27T23:41:17.521Z,6.90
2019-06-27T23:43:44.573Z,6.70
2019-06-27T23:46:31.303Z,5.97
2019-06-27T23:48:58.567Z,6.43
2019-06-27T23:51:25.865Z,7.10
2019-06-27T23:53:52.940Z,6.80
2019-06-27T23:56:20.011Z,7.17
2019-06-27T23:58:47.077Z,6.47
